createdAt,value
2022-12-24T00:00:23.141Z,13.10
2022-12-24T00:02:53.622Z,13.20
2022-12-24T00:05:24.073Z,13.20
2022-12-24T00:07:56.903Z,13.30
2022-12-24T00:10:27.373Z,13.40
2022-12-24T00:12:57.464Z,13.40
2022-12-24T00:15:27.681Z,13.40
2022-12-24T00:17:57.905Z,13.30
2022-12-24T00:20:28.200Z,13.20
2022-12-24T00:23:00.977Z,13.10
2022-12-24T00:25:31.239Z,13.00
2022-12-24T00:28:10.370Z,13.00
2022-12-24T00:30:42.030Z,13.00
2022-12-24T00:33:12.344Z,13.00
2022-12-24T00:35:43.862Z,13.10
2022-12-24T00:38:16.674Z,13.10
2022-12-24T00:40:46.775Z,13.10
2022-12-24T00:43:17.033Z,13.20
2022-12-24T00:45:47.303Z,13.20
2022-12-24T00:48:17.460Z,13.20
2022-12-24T00:50:47.721Z,13.30
2022-12-24T00:53:21.321Z,13.20
2022-12-24T00:55:51.517Z,13.20
2022-12-24T00:58:21.704Z,13.30
2022-12-24T01:00:51.942Z,13.40
2022-12-24T01:03:22.195Z,13.40
2022-12-24T01:05:51.647Z,13.40
2022-12-24T01:08:24.326Z,13.50
2022-12-24T01:10:54.446Z,13.50
2022-12-24T01:13:24.656Z,13.30
2022-12-24T01:15:55.329Z,13.40
2022-12-24T01:18:26.456Z,13.40
2022-12-24T01:21:01.186Z,13.10
2022-12-24T01:23:34.793Z,13.20
2022-12-24T01:26:06.740Z,13.30
2022-12-24T01:28:37.354Z,13.50
2022-12-24T01:31:14.957Z,13.30
2022-12-24T01:33:45.957Z,13.30
2022-12-24T01:36:16.664Z,13.30
2022-12-24T01:38:49.586Z,13.10
2022-12-24T01:41:33.486Z,13.00
2022-12-24T01:44:22.760Z,13.10
2022-12-24T01:46:57.737Z,13.20
2022-12-24T01:49:28.556Z,13.20
2022-12-24T01:52:04.223Z,13.20
2022-12-24T01:54:38.805Z,13.30
2022-12-24T01:57:13.827Z,13.20
2022-12-24T01:59:49.231Z,13.20
2022-12-24T02:02:20.218Z,13.40
2022-12-24T02:04:53.903Z,13.40
2022-12-24T02:07:24.543Z,13.30
2022-12-24T02:10:03.775Z,13.20
2022-12-24T02:12:38.090Z,13.30
2022-12-24T02:15:10.021Z,13.20
2022-12-24T02:17:47.372Z,13.10
2022-12-24T02:20:52.577Z,13.30
2022-12-24T02:23:52.732Z,13.30
2022-12-24T02:26:46.014Z,13.40
2022-12-24T02:29:36.273Z,13.40
2022-12-24T02:32:15.245Z,13.30
2022-12-24T02:34:51.027Z,13.20
2022-12-24T02:37:29.192Z,13.30
2022-12-24T02:40:05.391Z,13.30
2022-12-24T02:42:40.104Z,13.40
2022-12-24T02:45:13.429Z,13.70
2022-12-24T02:47:48.451Z,13.40
2022-12-24T02:50:20.404Z,13.30
2022-12-24T02:52:51.479Z,13.40
2022-12-24T02:55:26.060Z,13.30
2022-12-24T02:58:21.394Z,13.10
2022-12-24T03:01:16.579Z,13.10
2022-12-24T03:04:09.569Z,13.10
2022-12-24T03:06:50.031Z,13.20
2022-12-24T03:09:28.326Z,13.20
2022-12-24T03:12:05.335Z,13.30
2022-12-24T03:14:37.054Z,13.30
2022-12-24T03:17:07.505Z,13.30
2022-12-24T03:19:42.431Z,13.30
2022-12-24T03:22:14.608Z,13.40
2022-12-24T03:24:44.933Z,13.40
2022-12-24T03:27:16.610Z,13.40
2022-12-24T03:29:47.720Z,13.40
2022-12-24T03:32:17.535Z,13.50
2022-12-24T03:34:50.478Z,13.50
2022-12-24T03:37:20.746Z,13.50
2022-12-24T03:39:51.308Z,13.40
2022-12-24T03:42:21.485Z,13.40
2022-12-24T03:44:52.000Z,13.40
2022-12-24T03:47:22.102Z,13.60
2022-12-24T03:49:55.353Z,13.60
2022-12-24T03:52:25.464Z,13.40
2022-12-24T03:54:56.107Z,13.30
2022-12-24T03:57:26.286Z,13.20
2022-12-24T03:59:56.617Z,13.20
2022-12-24T04:02:26.807Z,13.30
2022-12-24T04:04:59.891Z,13.30
2022-12-24T04:07:30.110Z,13.30
2022-12-24T04:10:00.518Z,13.40
2022-12-24T04:12:30.720Z,13.60
2022-12-24T04:15:01.046Z,13.50
2022-12-24T04:17:31.276Z,13.30
2022-12-24T04:20:04.080Z,13.30
2022-12-24T04:22:34.330Z,13.20
2022-12-24T04:25:04.511Z,13.10
2022-12-24T04:27:34.741Z,13.00
2022-12-24T04:30:04.976Z,13.00
2022-12-24T04:32:47.681Z,13.10
2022-12-24T04:35:20.649Z,13.10
2022-12-24T04:37:51.149Z,13.20
2022-12-24T04:40:21.535Z,13.20
2022-12-24T04:42:52.380Z,13.10
2022-12-24T04:45:22.826Z,13.10
2022-12-24T04:47:53.185Z,13.20
2022-12-24T04:50:25.926Z,13.20
2022-12-24T04:52:56.132Z,13.40
2022-12-24T04:55:26.286Z,13.30
2022-12-24T04:57:56.430Z,13.30
2022-12-24T05:00:26.744Z,13.40
2022-12-24T05:02:57.054Z,13.40
2022-12-24T05:05:30.133Z,13.40
2022-12-24T05:08:00.184Z,13.40
2022-12-24T05:10:30.368Z,13.30
2022-12-24T05:13:00.488Z,13.40
2022-12-24T05:15:30.582Z,13.30
2022-12-24T05:18:01.088Z,13.40
2022-12-24T05:20:34.076Z,13.20
2022-12-24T05:23:16.572Z,13.20
2022-12-24T05:25:59.244Z,13.10
2022-12-24T05:28:29.648Z,13.20
2022-12-24T05:30:59.956Z,13.20
2022-12-24T05:33:30.040Z,13.30
2022-12-24T05:36:03.047Z,13.30
2022-12-24T05:38:33.444Z,13.20
2022-12-24T05:41:03.767Z,13.20
2022-12-24T05:43:33.908Z,13.10
2022-12-24T05:46:05.125Z,13.20
2022-12-24T05:48:35.814Z,13.20
2022-12-24T05:51:11.841Z,13.20
2022-12-24T05:53:42.154Z,13.20
2022-12-24T05:56:14.027Z,13.20
2022-12-24T05:58:44.973Z,13.20
2022-12-24T06:01:15.969Z,13.20
2022-12-24T06:03:46.335Z,13.10
2022-12-24T06:06:22.083Z,13.00
2022-12-24T06:08:53.412Z,13.10
2022-12-24T06:11:25.699Z,13.00
2022-12-24T06:13:56.478Z,13.10
2022-12-24T06:16:28.382Z,13.00
2022-12-24T06:18:59.002Z,12.70
2022-12-24T06:21:31.772Z,12.70
2022-12-24T06:24:01.921Z,12.80
2022-12-24T06:26:32.250Z,12.80
2022-12-24T06:29:02.367Z,12.90
2022-12-24T06:31:32.759Z,12.90
2022-12-24T06:34:02.824Z,13.00
2022-12-24T06:36:35.786Z,13.10
2022-12-24T06:39:06.065Z,13.00
2022-12-24T06:41:36.156Z,13.00
2022-12-24T06:44:06.490Z,13.00
2022-12-24T06:49:07.198Z,13.00
2022-12-24T06:51:39.924Z,12.90
2022-12-24T06:54:10.131Z,12.80
2022-12-24T06:56:40.481Z,12.70
2022-12-24T06:59:10.709Z,12.40
2022-12-24T07:01:41.350Z,12.60
2022-12-24T07:04:18.017Z,12.60
2022-12-24T07:06:53.128Z,12.70
2022-12-24T07:09:23.449Z,12.70
2022-12-24T07:11:53.694Z,12.70
2022-12-24T07:14:24.004Z,12.80
2022-12-24T07:16:58.980Z,12.70
2022-12-24T07:19:38.735Z,12.50
2022-12-24T07:22:15.661Z,12.50
2022-12-24T07:24:46.178Z,12.60
2022-12-24T07:27:16.487Z,12.30
2022-12-24T07:29:46.632Z,12.80
2022-12-24T07:32:16.833Z,12.80
2022-12-24T07:34:49.990Z,12.80
2022-12-24T07:40:15.834Z,15.00
2022-12-24T07:42:46.002Z,12.80
2022-12-24T07:45:16.248Z,12.70
2022-12-24T07:47:46.551Z,12.80
2022-12-24T07:50:16.694Z,12.90
2022-12-24T07:52:49.434Z,12.80
2022-12-24T07:55:19.698Z,12.90
2022-12-24T07:57:50.241Z,13.00
2022-12-24T08:00:21.240Z,13.00
2022-12-24T08:02:51.750Z,13.00
2022-12-24T08:05:22.038Z,12.90
2022-12-24T08:07:55.139Z,13.00
2022-12-24T08:10:25.220Z,13.10
2022-12-24T08:12:55.748Z,13.20
2022-12-24T08:15:25.915Z,13.10
2022-12-24T08:17:56.032Z,13.10
2022-12-24T08:20:26.237Z,13.20
2022-12-24T08:22:59.203Z,13.40
2022-12-24T08:25:29.503Z,13.40
2022-12-24T08:28:00.531Z,13.30
2022-12-24T08:30:30.676Z,13.40
2022-12-24T08:33:00.905Z,13.40
2022-12-24T08:35:31.396Z,13.30
2022-12-24T08:38:04.290Z,13.30
2022-12-24T08:40:34.521Z,13.20
2022-12-24T08:43:05.640Z,13.20
2022-12-24T08:45:40.165Z,13.30
2022-12-24T08:48:12.040Z,13.30
2022-12-24T08:50:43.539Z,13.40
2022-12-24T08:53:16.501Z,13.50
2022-12-24T08:55:50.336Z,13.60
2022-12-24T08:58:25.861Z,13.40
2022-12-24T09:00:56.034Z,13.40
2022-12-24T09:03:28.019Z,13.40
2022-12-24T09:05:58.641Z,13.60
2022-12-24T09:08:31.432Z,13.80
2022-12-24T09:11:06.613Z,13.60
2022-12-24T09:13:37.058Z,13.60
2022-12-24T09:16:08.239Z,13.70
2022-12-24T09:18:38.924Z,13.60
2022-12-24T09:21:11.678Z,13.60
2022-12-24T09:23:46.084Z,13.70
2022-12-24T09:26:18.475Z,13.90
2022-12-24T09:28:49.445Z,13.90
2022-12-24T09:31:19.686Z,13.90
2022-12-24T09:33:51.366Z,13.80
2022-12-24T09:36:22.570Z,13.80
2022-12-24T09:38:55.591Z,13.70
2022-12-24T09:41:43.348Z,13.80
2022-12-24T09:44:35.477Z,13.80
2022-12-24T09:47:13.018Z,13.70
2022-12-24T09:49:47.743Z,13.60
2022-12-24T09:52:29.890Z,13.50
2022-12-24T09:55:17.686Z,13.50
2022-12-24T09:57:50.277Z,13.60
2022-12-24T10:00:23.918Z,13.70
2022-12-24T10:02:54.277Z,13.80
2022-12-24T10:05:35.249Z,14.30
2022-12-24T10:08:15.776Z,13.60
2022-12-24T10:10:55.192Z,13.80
2022-12-24T10:13:39.360Z,13.60
2022-12-24T10:16:13.368Z,13.70
2022-12-24T10:18:51.622Z,13.70
2022-12-24T10:21:33.686Z,13.90
2022-12-24T10:24:10.492Z,14.00
2022-12-24T10:26:48.507Z,14.10
2022-12-24T10:29:23.109Z,14.30
2022-12-24T10:32:03.931Z,14.20
2022-12-24T10:34:39.242Z,14.30
2022-12-24T10:37:09.494Z,14.00
2022-12-24T10:39:39.662Z,13.90
2022-12-24T10:42:14.385Z,13.90
2022-12-24T10:44:44.811Z,14.00
2022-12-24T10:47:16.575Z,14.10
2022-12-24T10:49:51.169Z,14.10
2022-12-24T10:52:24.626Z,13.90
2022-12-24T10:55:11.318Z,13.90
2022-12-24T10:57:44.197Z,14.00
2022-12-24T11:00:27.132Z,14.50
2022-12-24T11:03:26.074Z,14.80
2022-12-24T11:06:09.217Z,14.80
2022-12-24T11:08:40.776Z,14.90
2022-12-24T11:11:12.921Z,14.90
2022-12-24T11:13:48.719Z,15.10
2022-12-24T11:16:24.118Z,15.00
2022-12-24T11:18:56.729Z,15.10
2022-12-24T11:21:29.344Z,15.20
2022-12-24T11:24:01.210Z,15.30
2022-12-24T11:26:33.359Z,15.30
2022-12-24T11:29:23.325Z,15.50
2022-12-24T11:31:55.486Z,15.50
2022-12-24T11:34:28.809Z,15.40
2022-12-24T11:37:15.132Z,15.10
2022-12-24T11:39:54.969Z,15.30
2022-12-24T11:42:37.156Z,15.40
2022-12-24T11:45:20.823Z,15.40
2022-12-24T11:47:50.873Z,15.30
2022-12-24T11:50:26.799Z,15.50
2022-12-24T11:53:03.748Z,15.50
2022-12-24T11:55:44.289Z,14.90
2022-12-24T11:58:27.897Z,14.90
2022-12-24T12:01:10.103Z,16.10
2022-12-24T12:03:48.534Z,14.90
2022-12-24T12:06:28.742Z,14.60
2022-12-24T12:09:01.902Z,15.00
2022-12-24T12:11:33.135Z,14.90
2022-12-24T12:14:06.390Z,15.20
2022-12-24T12:17:03.183Z,15.00
2022-12-24T12:19:43.255Z,15.10
2022-12-24T12:22:21.807Z,15.30
2022-12-24T12:24:56.126Z,15.10
2022-12-24T12:27:33.787Z,15.10
2022-12-24T12:30:06.459Z,15.20
2022-12-24T12:32:49.253Z,15.30
2022-12-24T12:35:26.680Z,15.40
2022-12-24T12:38:01.113Z,15.20
2022-12-24T12:41:04.348Z,15.00
2022-12-24T12:44:02.992Z,15.00
2022-12-24T12:46:43.468Z,14.90
2022-12-24T12:49:31.375Z,15.10
2022-12-24T12:52:08.059Z,15.00
2022-12-24T12:54:51.456Z,14.90
2022-12-24T12:57:26.297Z,14.90
2022-12-24T13:00:00.238Z,15.00
2022-12-24T13:02:55.429Z,15.00
2022-12-24T13:05:56.427Z,14.70
2022-12-24T13:08:51.804Z,14.90
2022-12-24T13:11:39.467Z,14.90
2022-12-24T13:14:25.587Z,15.00
2022-12-24T13:17:23.897Z,15.30
2022-12-24T13:20:13.086Z,15.30
2022-12-24T13:22:52.097Z,16.00
2022-12-24T13:25:26.577Z,15.60
2022-12-24T13:27:57.284Z,15.50
2022-12-24T13:30:41.742Z,15.40
2022-12-24T13:33:14.441Z,15.70
2022-12-24T13:36:07.659Z,15.30
2022-12-24T13:38:43.911Z,15.30
2022-12-24T13:41:55.843Z,15.20
2022-12-24T13:44:33.011Z,15.20
2022-12-24T13:47:30.168Z,15.10
2022-12-24T13:50:17.212Z,15.20
2022-12-24T13:52:54.707Z,15.30
2022-12-24T13:55:27.555Z,15.10
2022-12-24T13:58:00.913Z,15.10
2022-12-24T14:00:39.270Z,15.10
2022-12-24T14:03:19.867Z,14.90
2022-12-24T14:05:56.634Z,14.90
2022-12-24T14:08:34.612Z,14.90
2022-12-24T14:11:13.462Z,14.90
2022-12-24T14:14:15.335Z,15.00
2022-12-24T14:16:49.231Z,14.90
2022-12-24T14:19:23.426Z,15.00
2022-12-24T14:21:59.396Z,14.90
2022-12-24T14:24:34.741Z,14.90
2022-12-24T14:27:20.023Z,15.00
2022-12-24T14:29:53.934Z,15.00
2022-12-24T14:32:24.046Z,15.00
2022-12-24T14:35:17.200Z,14.90
2022-12-24T14:37:50.029Z,14.90
2022-12-24T14:40:23.224Z,14.90
2022-12-24T14:43:01.857Z,14.80
2022-12-24T14:45:37.445Z,14.90
2022-12-24T14:48:15.215Z,14.90
2022-12-24T14:51:01.637Z,14.80
2022-12-24T14:53:49.466Z,14.90
2022-12-24T14:56:22.653Z,14.80
2022-12-24T14:58:55.504Z,14.80
2022-12-24T15:01:28.260Z,14.80
2022-12-24T15:04:06.296Z,14.90
2022-12-24T15:06:39.468Z,14.80
2022-12-24T15:09:16.923Z,14.70
2022-12-24T15:11:48.219Z,14.70
2022-12-24T15:14:22.225Z,14.70
2022-12-24T15:16:57.651Z,14.70
2022-12-24T15:19:33.911Z,14.70
2022-12-24T15:22:05.093Z,14.60
2022-12-24T15:24:36.868Z,14.60
2022-12-24T15:27:17.924Z,14.50
2022-12-24T15:29:52.838Z,14.40
2022-12-24T15:32:24.939Z,14.40
2022-12-24T15:34:57.309Z,14.40
2022-12-24T15:37:29.615Z,14.40
2022-12-24T15:40:02.479Z,14.50
2022-12-24T15:42:32.947Z,14.60
2022-12-24T15:45:08.021Z,14.60
2022-12-24T15:47:40.582Z,14.70
2022-12-24T15:50:19.520Z,14.70
2022-12-24T15:53:21.169Z,14.70
2022-12-24T15:55:43.312Z,14.70
2022-12-24T15:58:25.903Z,14.50
2022-12-24T16:01:08.587Z,14.50
2022-12-24T16:03:41.072Z,14.50
2022-12-24T16:06:12.865Z,14.60
2022-12-24T16:08:43.920Z,14.60
2022-12-24T16:11:20.413Z,14.70
2022-12-24T16:14:05.411Z,14.70
2022-12-24T16:16:43.195Z,14.60
2022-12-24T16:19:21.628Z,14.60
2022-12-24T16:21:56.377Z,14.70
2022-12-24T16:24:29.152Z,14.60
2022-12-24T16:27:00.093Z,14.50
2022-12-24T16:29:30.301Z,14.50
2022-12-24T16:32:03.095Z,14.40
2022-12-24T16:34:34.511Z,14.40
2022-12-24T16:37:05.606Z,14.40
2022-12-24T16:39:36.211Z,14.50
2022-12-24T16:42:19.879Z,14.50
2022-12-24T16:44:50.814Z,14.50
2022-12-24T16:47:26.704Z,14.50
2022-12-24T16:49:57.506Z,14.50
2022-12-24T16:52:29.493Z,14.40
2022-12-24T16:55:00.142Z,14.40
2022-12-24T16:57:30.924Z,14.40
2022-12-24T17:00:01.009Z,14.40
2022-12-24T17:02:33.906Z,14.40
2022-12-24T17:05:04.187Z,14.40
2022-12-24T17:07:38.247Z,14.40
2022-12-24T17:10:14.393Z,14.30
2022-12-24T17:12:45.239Z,14.20
2022-12-24T17:15:15.510Z,14.30
2022-12-24T17:17:48.277Z,14.30
2022-12-24T17:20:23.802Z,14.30
2022-12-24T17:22:54.908Z,14.30
2022-12-24T17:25:26.165Z,14.40
2022-12-24T17:27:56.201Z,14.40
2022-12-24T17:30:26.286Z,14.50
2022-12-24T17:32:59.008Z,14.50
2022-12-24T17:35:30.094Z,14.50
2022-12-24T17:37:59.875Z,14.40
2022-12-24T17:40:30.148Z,14.40
2022-12-24T17:43:00.280Z,14.40
2022-12-24T17:45:30.522Z,14.40
2022-12-24T17:48:03.424Z,14.40
2022-12-24T17:50:33.742Z,14.40
2022-12-24T17:53:03.941Z,14.30
2022-12-24T17:55:34.161Z,14.30
2022-12-24T17:58:04.378Z,14.20
2022-12-24T18:00:34.536Z,14.20
2022-12-24T18:03:07.452Z,14.20
2022-12-24T18:05:38.119Z,14.20
2022-12-24T18:08:09.159Z,14.10
2022-12-24T18:10:39.584Z,14.00
2022-12-24T18:13:15.508Z,13.90
2022-12-24T18:18:22.286Z,14.00
2022-12-24T18:20:53.133Z,13.90
2022-12-24T18:23:23.327Z,13.90
2022-12-24T18:25:54.167Z,13.90
2022-12-24T18:28:24.283Z,13.90
2022-12-24T18:31:00.972Z,13.90
2022-12-24T18:33:34.460Z,13.80
2022-12-24T18:36:04.699Z,13.80
2022-12-24T18:38:35.256Z,13.70
2022-12-24T18:41:06.898Z,13.70
2022-12-24T18:43:37.813Z,13.70
2022-12-24T18:46:10.688Z,13.60
2022-12-24T18:48:43.914Z,13.60
2022-12-24T18:51:14.694Z,13.60
2022-12-24T18:53:45.042Z,13.60
2022-12-24T18:56:16.966Z,13.60
2022-12-24T18:58:47.401Z,13.60
2022-12-24T19:01:19.492Z,13.40
2022-12-24T19:03:52.341Z,13.50
2022-12-24T19:06:23.862Z,13.50
2022-12-24T19:08:57.703Z,13.50
2022-12-24T19:11:29.306Z,13.50
2022-12-24T19:13:59.733Z,13.40
2022-12-24T19:16:30.674Z,13.40
2022-12-24T19:19:03.361Z,13.30
2022-12-24T19:21:33.623Z,13.30
2022-12-24T19:24:04.167Z,13.30
2022-12-24T19:26:34.331Z,13.30
2022-12-24T19:29:04.393Z,13.20
2022-12-24T19:31:35.313Z,13.30
2022-12-24T19:34:07.971Z,13.20
2022-12-24T19:36:38.077Z,13.30
2022-12-24T19:39:09.119Z,13.20
2022-12-24T19:41:39.492Z,13.30
2022-12-24T19:44:09.666Z,13.20
2022-12-24T19:49:15.039Z,13.30
2022-12-24T19:51:45.191Z,13.20
2022-12-24T19:54:19.138Z,13.30
2022-12-24T19:56:50.000Z,13.20
2022-12-24T19:59:20.636Z,13.20
2022-12-24T20:01:51.007Z,13.10
2022-12-24T20:04:23.842Z,13.10
2022-12-24T20:07:00.375Z,13.10
2022-12-24T20:09:32.945Z,13.20
2022-12-24T20:12:03.199Z,13.10
2022-12-24T20:14:33.348Z,13.10
2022-12-24T20:17:03.659Z,13.20
2022-12-24T20:19:36.418Z,13.30
2022-12-24T20:22:06.612Z,13.40
2022-12-24T20:24:36.949Z,13.30
2022-12-24T20:27:07.114Z,13.30
2022-12-24T20:29:37.264Z,13.20
2022-12-24T20:32:08.441Z,13.30
2022-12-24T20:34:41.295Z,13.40
2022-12-24T20:37:11.522Z,13.40
2022-12-24T20:39:43.061Z,13.40
2022-12-24T20:42:13.291Z,13.50
2022-12-24T20:44:43.520Z,13.50
2022-12-24T20:47:13.663Z,13.50
2022-12-24T20:49:46.781Z,13.40
2022-12-24T20:52:16.997Z,13.40
2022-12-24T20:54:47.168Z,13.40
2022-12-24T20:57:23.168Z,13.50
2022-12-24T21:00:01.488Z,13.50
2022-12-24T21:02:31.861Z,13.40
2022-12-24T21:05:04.643Z,13.50
2022-12-24T21:07:34.747Z,13.40
2022-12-24T21:10:04.868Z,13.40
2022-12-24T21:12:47.349Z,13.40
2022-12-24T21:15:17.512Z,13.10
2022-12-24T21:17:47.992Z,13.30
2022-12-24T21:20:21.757Z,13.30
2022-12-24T21:22:55.960Z,13.20
2022-12-24T21:25:30.569Z,13.10
2022-12-24T21:28:00.804Z,13.20
2022-12-24T21:30:32.310Z,13.30
2022-12-24T21:33:02.576Z,13.20
2022-12-24T21:35:35.268Z,13.10
2022-12-24T21:38:05.336Z,13.20
2022-12-24T21:40:35.485Z,13.10
2022-12-24T21:43:05.669Z,13.10
2022-12-24T21:45:35.989Z,13.00
2022-12-24T21:48:26.438Z,13.00
2022-12-24T21:50:56.567Z,13.00
2022-12-24T21:53:41.996Z,13.10
2022-12-24T21:56:19.329Z,13.10
2022-12-24T21:58:51.612Z,13.10
2022-12-24T22:01:27.565Z,13.00
2022-12-24T22:03:57.819Z,13.00
2022-12-24T22:07:04.855Z,12.90
2022-12-24T22:09:47.543Z,12.90
2022-12-24T22:12:17.935Z,12.80
2022-12-24T22:14:48.463Z,12.80
2022-12-24T22:17:24.686Z,12.80
2022-12-24T22:19:55.922Z,12.90
2022-12-24T22:22:28.735Z,12.90
2022-12-24T22:27:29.228Z,12.90
2022-12-24T22:29:59.826Z,12.90
2022-12-24T22:32:30.028Z,12.90
2022-12-24T22:35:00.348Z,12.90
2022-12-24T22:37:33.013Z,13.00
2022-12-24T22:40:03.121Z,13.10
2022-12-24T22:42:35.204Z,13.10
2022-12-24T22:45:05.470Z,13.20
2022-12-24T22:47:36.465Z,13.30
2022-12-24T22:50:07.451Z,13.40
2022-12-24T22:52:40.190Z,13.50
2022-12-24T22:55:11.477Z,13.40
2022-12-24T22:57:41.664Z,13.50
2022-12-24T23:00:16.087Z,13.40
2022-12-24T23:02:46.345Z,13.60
2022-12-24T23:05:17.765Z,16.40
2022-12-24T23:07:50.430Z,13.40
2022-12-24T23:10:20.919Z,13.50
2022-12-24T23:13:03.558Z,13.50
2022-12-24T23:15:34.850Z,13.50
2022-12-24T23:18:04.949Z,13.50
2022-12-24T23:20:35.313Z,13.50
2022-12-24T23:23:08.058Z,13.50
2022-12-24T23:25:38.798Z,13.50
2022-12-24T23:28:09.344Z,13.50
2022-12-24T23:30:39.564Z,13.60
2022-12-24T23:33:09.690Z,13.60
2022-12-24T23:35:39.885Z,13.60
2022-12-24T23:38:12.545Z,13.60
2022-12-24T23:40:44.819Z,13.60
2022-12-24T23:43:15.249Z,13.60
2022-12-24T23:45:50.296Z,13.60
2022-12-24T23:48:20.813Z,13.70
2022-12-24T23:50:51.293Z,13.60
2022-12-24T23:53:24.335Z,13.70
2022-12-24T23:55:54.403Z,13.80
2022-12-24T23:58:24.450Z,13.90
